sensor_id;sensor_type;location;lat;lon;timestamp;P1;durP1;ratioP1;P2;durP2;ratioP2
16075;SDS011;8142;48.242;11.644;2022-11-11T00:03:26;9.47;;;6.03;;
16075;SDS011;8142;48.242;11.644;2022-11-11T00:05:52;10.03;;;5.90;;
16075;SDS011;8142;48.242;11.644;2022-11-11T00:08:18;10.63;;;6.00;;
16075;SDS011;8142;48.242;11.644;2022-11-11T00:10:44;13.70;;;7.03;;
16075;SDS011;8142;48.242;11.644;2022-11-11T00:13:09;19.20;;;8.40;;
16075;SDS011;8142;48.242;11.644;2022-11-11T00:15:36;15.10;;;8.20;;
16075;SDS011;8142;48.242;11.644;2022-11-11T00:18:03;13.83;;;7.40;;
16075;SDS011;8142;48.242;11.644;2022-11-11T00:20:48;11.13;;;6.07;;
16075;SDS011;8142;48.242;11.644;2022-11-11T00:23:33;8.43;;;4.97;;
16075;SDS011;8142;48.242;11.644;2022-11-11T00:26:18;6.67;;;4.80;;
16075;SDS011;8142;48.242;11.644;2022-11-11T00:28:44;8.20;;;4.60;;
16075;SDS011;8142;48.242;11.644;2022-11-11T00:31:10;6.93;;;5.23;;
16075;SDS011;8142;48.242;11.644;2022-11-11T00:33:38;6.57;;;4.37;;
16075;SDS011;8142;48.242;11.644;2022-11-11T00:36:04;5.43;;;4.40;;
16075;SDS011;8142;48.242;11.644;2022-11-11T00:38:31;6.97;;;4.13;;
16075;SDS011;8142;48.242;11.644;2022-11-11T00:41:20;6.17;;;4.43;;
16075;SDS011;8142;48.242;11.644;2022-11-11T00:43:47;7.57;;;4.50;;
16075;SDS011;8142;48.242;11.644;2022-11-11T00:46:14;6.27;;;4.23;;
16075;SDS011;8142;48.242;11.644;2022-11-11T00:48:59;5.23;;;4.10;;
16075;SDS011;8142;48.242;11.644;2022-11-11T00:51:44;5.67;;;4.27;;
16075;SDS011;8142;48.242;11.644;2022-11-11T00:54:11;4.97;;;3.80;;
16075;SDS011;8142;48.242;11.644;2022-11-11T00:56:37;5.87;;;4.13;;
16075;SDS011;8142;48.242;11.644;2022-11-11T00:59:04;4.63;;;4.07;;
16075;SDS011;8142;48.242;11.644;2022-11-11T01:01:32;5.87;;;4.00;;
16075;SDS011;8142;48.242;11.644;2022-11-11T01:03:59;5.37;;;3.83;;
16075;SDS011;8142;48.242;11.644;2022-11-11T01:06:25;8.20;;;4.17;;
16075;SDS011;8142;48.242;11.644;2022-11-11T01:08:51;6.10;;;3.97;;
16075;SDS011;8142;48.242;11.644;2022-11-11T01:11:18;5.03;;;3.80;;
16075;SDS011;8142;48.242;11.644;2022-11-11T01:13:45;4.63;;;3.60;;
16075;SDS011;8142;48.242;11.644;2022-11-11T01:16:13;5.33;;;3.70;;
16075;SDS011;8142;48.242;11.644;2022-11-11T01:18:41;6.23;;;3.90;;
16075;SDS011;8142;48.242;11.644;2022-11-11T01:21:09;4.07;;;3.40;;
16075;SDS011;8142;48.242;11.644;2022-11-11T01:23:44;5.63;;;3.43;;
16075;SDS011;8142;48.242;11.644;2022-11-11T01:28:53;5.37;;;3.53;;
16075;SDS011;8142;48.242;11.644;2022-11-11T01:31:22;5.43;;;3.50;;
16075;SDS011;8142;48.242;11.644;2022-11-11T01:33:49;5.73;;;3.70;;
16075;SDS011;8142;48.242;11.644;2022-11-11T01:36:16;6.23;;;3.70;;
16075;SDS011;8142;48.242;11.644;2022-11-11T01:38:46;6.70;;;4.00;;
16075;SDS011;8142;48.242;11.644;2022-11-11T01:41:14;6.67;;;4.13;;
16075;SDS011;8142;48.242;11.644;2022-11-11T01:54:25;9.90;;;5.17;;
16075;SDS011;8142;48.242;11.644;2022-11-11T01:57:16;9.47;;;5.03;;
16075;SDS011;8142;48.242;11.644;2022-11-11T01:59:53;8.50;;;4.63;;
16075;SDS011;8142;48.242;11.644;2022-11-11T02:02:38;8.27;;;4.20;;
16075;SDS011;8142;48.242;11.644;2022-11-11T02:05:05;5.67;;;4.00;;
16075;SDS011;8142;48.242;11.644;2022-11-11T02:07:52;3.73;;;3.43;;
16075;SDS011;8142;48.242;11.644;2022-11-11T02:10:21;6.00;;;3.20;;
16075;SDS011;8142;48.242;11.644;2022-11-11T02:12:49;3.73;;;3.30;;
16075;SDS011;8142;48.242;11.644;2022-11-11T02:15:34;4.93;;;3.50;;
16075;SDS011;8142;48.242;11.644;2022-11-11T02:18:01;4.23;;;3.50;;
16075;SDS011;8142;48.242;11.644;2022-11-11T02:20:29;4.63;;;3.63;;
16075;SDS011;8142;48.242;11.644;2022-11-11T02:23:10;5.27;;;3.57;;
16075;SDS011;8142;48.242;11.644;2022-11-11T02:25:36;5.23;;;3.43;;
16075;SDS011;8142;48.242;11.644;2022-11-11T02:28:05;4.43;;;3.30;;
16075;SDS011;8142;48.242;11.644;2022-11-11T02:30:32;4.33;;;3.33;;
16075;SDS011;8142;48.242;11.644;2022-11-11T02:32:58;3.97;;;3.43;;
16075;SDS011;8142;48.242;11.644;2022-11-11T02:35:28;3.53;;;3.13;;
16075;SDS011;8142;48.242;11.644;2022-11-11T02:37:58;4.50;;;3.33;;
16075;SDS011;8142;48.242;11.644;2022-11-11T02:40:38;4.87;;;3.30;;
16075;SDS011;8142;48.242;11.644;2022-11-11T02:43:25;5.33;;;3.20;;
16075;SDS011;8142;48.242;11.644;2022-11-11T02:45:51;3.87;;;3.10;;
16075;SDS011;8142;48.242;11.644;2022-11-11T02:48:17;3.83;;;3.13;;
16075;SDS011;8142;48.242;11.644;2022-11-11T02:50:43;3.90;;;3.27;;
16075;SDS011;8142;48.242;11.644;2022-11-11T02:53:09;4.87;;;3.20;;
16075;SDS011;8142;48.242;11.644;2022-11-11T02:55:35;5.83;;;3.30;;
16075;SDS011;8142;48.242;11.644;2022-11-11T02:58:01;3.53;;;3.13;;
16075;SDS011;8142;48.242;11.644;2022-11-11T03:00:28;4.33;;;3.40;;
16075;SDS011;8142;48.242;11.644;2022-11-11T03:02:54;4.10;;;3.23;;
16075;SDS011;8142;48.242;11.644;2022-11-11T03:05:20;4.60;;;3.40;;
16075;SDS011;8142;48.242;11.644;2022-11-11T03:07:46;5.13;;;3.20;;
16075;SDS011;8142;48.242;11.644;2022-11-11T03:10:12;3.50;;;3.20;;
16075;SDS011;8142;48.242;11.644;2022-11-11T03:12:38;4.63;;;3.30;;
16075;SDS011;8142;48.242;11.644;2022-11-11T03:15:04;5.27;;;3.37;;
16075;SDS011;8142;48.242;11.644;2022-11-11T03:17:30;4.57;;;3.17;;
16075;SDS011;8142;48.242;11.644;2022-11-11T03:20:06;4.60;;;3.13;;
16075;SDS011;8142;48.242;11.644;2022-11-11T03:22:59;4.30;;;3.10;;
16075;SDS011;8142;48.242;11.644;2022-11-11T03:25:26;3.73;;;2.80;;
16075;SDS011;8142;48.242;11.644;2022-11-11T03:28:13;3.43;;;3.10;;
16075;SDS011;8142;48.242;11.644;2022-11-11T03:30:44;4.37;;;3.10;;
16075;SDS011;8142;48.242;11.644;2022-11-11T03:33:12;4.53;;;2.87;;
16075;SDS011;8142;48.242;11.644;2022-11-11T03:35:38;3.20;;;2.90;;
16075;SDS011;8142;48.242;11.644;2022-11-11T03:38:06;6.73;;;3.53;;
16075;SDS011;8142;48.242;11.644;2022-11-11T03:40:44;3.30;;;2.80;;
16075;SDS011;8142;48.242;11.644;2022-11-11T03:43:12;3.63;;;3.10;;
16075;SDS011;8142;48.242;11.644;2022-11-11T03:45:39;5.60;;;3.00;;
16075;SDS011;8142;48.242;11.644;2022-11-11T03:48:05;3.50;;;3.17;;
16075;SDS011;8142;48.242;11.644;2022-11-11T03:50:31;3.30;;;3.00;;
16075;SDS011;8142;48.242;11.644;2022-11-11T03:52:57;4.10;;;3.30;;
16075;SDS011;8142;48.242;11.644;2022-11-11T03:55:23;3.10;;;2.80;;
16075;SDS011;8142;48.242;11.644;2022-11-11T03:57:49;3.57;;;2.90;;
16075;SDS011;8142;48.242;11.644;2022-11-11T04:00:20;4.90;;;2.80;;
16075;SDS011;8142;48.242;11.644;2022-11-11T04:02:47;4.07;;;2.90;;
16075;SDS011;8142;48.242;11.644;2022-11-11T04:05:32;4.43;;;3.07;;
16075;SDS011;8142;48.242;11.644;2022-11-11T04:08:18;4.47;;;2.90;;
16075;SDS011;8142;48.242;11.644;2022-11-11T04:11:07;3.27;;;2.90;;
16075;SDS011;8142;48.242;11.644;2022-11-11T04:13:37;4.57;;;3.17;;
16075;SDS011;8142;48.242;11.644;2022-11-11T04:16:22;3.57;;;3.00;;
16075;SDS011;8142;48.242;11.644;2022-11-11T04:18:48;3.93;;;3.10;;
16075;SDS011;8142;48.242;11.644;2022-11-11T04:21:33;4.73;;;3.40;;
16075;SDS011;8142;48.242;11.644;2022-11-11T04:24:12;4.20;;;3.10;;
16075;SDS011;8142;48.242;11.644;2022-11-11T04:26:59;4.33;;;3.17;;
16075;SDS011;8142;48.242;11.644;2022-11-11T04:29:27;5.40;;;3.20;;
16075;SDS011;8142;48.242;11.644;2022-11-11T04:31:57;4.43;;;3.30;;
16075;SDS011;8142;48.242;11.644;2022-11-11T04:34:46;5.10;;;3.63;;
16075;SDS011;8142;48.242;11.644;2022-11-11T04:37:14;3.63;;;3.30;;
16075;SDS011;8142;48.242;11.644;2022-11-11T04:39:41;5.70;;;3.37;;
16075;SDS011;8142;48.242;11.644;2022-11-11T04:42:26;4.53;;;3.50;;
16075;SDS011;8142;48.242;11.644;2022-11-11T04:44:54;5.80;;;3.73;;
16075;SDS011;8142;48.242;11.644;2022-11-11T04:47:51;4.33;;;3.40;;
16075;SDS011;8142;48.242;11.644;2022-11-11T04:50:21;4.97;;;3.60;;
16075;SDS011;8142;48.242;11.644;2022-11-11T04:52:49;5.37;;;4.03;;
16075;SDS011;8142;48.242;11.644;2022-11-11T04:55:15;4.57;;;3.73;;
16075;SDS011;8142;48.242;11.644;2022-11-11T04:57:59;6.37;;;4.10;;
16075;SDS011;8142;48.242;11.644;2022-11-11T05:00:25;4.63;;;3.60;;
16075;SDS011;8142;48.242;11.644;2022-11-11T05:02:54;5.60;;;3.90;;
16075;SDS011;8142;48.242;11.644;2022-11-11T05:05:40;6.03;;;3.80;;
16075;SDS011;8142;48.242;11.644;2022-11-11T05:08:33;5.53;;;3.90;;
16075;SDS011;8142;48.242;11.644;2022-11-11T05:11:19;10.60;;;6.03;;
16075;SDS011;8142;48.242;11.644;2022-11-11T05:13:47;12.27;;;7.00;;
16075;SDS011;8142;48.242;11.644;2022-11-11T05:16:32;8.53;;;5.30;;
16075;SDS011;8142;48.242;11.644;2022-11-11T05:19:21;9.33;;;5.47;;
16075;SDS011;8142;48.242;11.644;2022-11-11T05:22:13;11.47;;;5.37;;
16075;SDS011;8142;48.242;11.644;2022-11-11T05:24:48;7.70;;;4.40;;
16075;SDS011;8142;48.242;11.644;2022-11-11T05:27:33;7.07;;;4.73;;
16075;SDS011;8142;48.242;11.644;2022-11-11T05:29:59;7.10;;;4.80;;
16075;SDS011;8142;48.242;11.644;2022-11-11T05:32:25;6.43;;;4.40;;
16075;SDS011;8142;48.242;11.644;2022-11-11T05:34:51;5.43;;;4.07;;
16075;SDS011;8142;48.242;11.644;2022-11-11T05:37:18;5.13;;;3.83;;
16075;SDS011;8142;48.242;11.644;2022-11-11T05:39:44;6.13;;;3.90;;
16075;SDS011;8142;48.242;11.644;2022-11-11T05:42:10;5.13;;;4.17;;
16075;SDS011;8142;48.242;11.644;2022-11-11T05:44:36;5.60;;;4.40;;
16075;SDS011;8142;48.242;11.644;2022-11-11T05:47:02;6.63;;;4.10;;
16075;SDS011;8142;48.242;11.644;2022-11-11T05:49:28;6.33;;;4.60;;
16075;SDS011;8142;48.242;11.644;2022-11-11T05:51:54;5.53;;;4.40;;
16075;SDS011;8142;48.242;11.644;2022-11-11T05:54:21;6.37;;;4.63;;
16075;SDS011;8142;48.242;11.644;2022-11-11T05:56:48;4.27;;;3.83;;
16075;SDS011;8142;48.242;11.644;2022-11-11T05:59:14;5.03;;;3.87;;
16075;SDS011;8142;48.242;11.644;2022-11-11T06:01:40;4.03;;;3.43;;
16075;SDS011;8142;48.242;11.644;2022-11-11T06:04:06;3.93;;;3.47;;
16075;SDS011;8142;48.242;11.644;2022-11-11T06:06:32;4.10;;;3.70;;
16075;SDS011;8142;48.242;11.644;2022-11-11T06:08:59;6.07;;;3.50;;
16075;SDS011;8142;48.242;11.644;2022-11-11T06:11:25;5.40;;;3.40;;
16075;SDS011;8142;48.242;11.644;2022-11-11T06:13:53;6.80;;;3.50;;
16075;SDS011;8142;48.242;11.644;2022-11-11T06:16:19;4.33;;;3.60;;
16075;SDS011;8142;48.242;11.644;2022-11-11T06:18:45;4.73;;;3.30;;
16075;SDS011;8142;48.242;11.644;2022-11-11T06:21:11;3.87;;;3.40;;
16075;SDS011;8142;48.242;11.644;2022-11-11T06:23:37;4.20;;;3.80;;
16075;SDS011;8142;48.242;11.644;2022-11-11T06:26:04;4.00;;;3.37;;
16075;SDS011;8142;48.242;11.644;2022-11-11T06:28:53;6.07;;;3.93;;
16075;SDS011;8142;48.242;11.644;2022-11-11T06:31:24;8.10;;;4.70;;
16075;SDS011;8142;48.242;11.644;2022-11-11T06:33:51;5.63;;;4.50;;
16075;SDS011;8142;48.242;11.644;2022-11-11T06:36:18;11.57;;;7.27;;
16075;SDS011;8142;48.242;11.644;2022-11-11T06:38:46;12.43;;;8.03;;
16075;SDS011;8142;48.242;11.644;2022-11-11T06:41:12;11.83;;;7.87;;
16075;SDS011;8142;48.242;11.644;2022-11-11T06:43:40;14.33;;;9.20;;
16075;SDS011;8142;48.242;11.644;2022-11-11T06:46:06;9.00;;;7.33;;
16075;SDS011;8142;48.242;11.644;2022-11-11T06:48:46;10.13;;;6.50;;
16075;SDS011;8142;48.242;11.644;2022-11-11T06:51:12;7.10;;;6.07;;
16075;SDS011;8142;48.242;11.644;2022-11-11T06:53:39;7.07;;;6.37;;
16075;SDS011;8142;48.242;11.644;2022-11-11T06:56:06;6.27;;;5.67;;
16075;SDS011;8142;48.242;11.644;2022-11-11T06:58:32;5.50;;;4.60;;
16075;SDS011;8142;48.242;11.644;2022-11-11T07:00:58;5.20;;;4.33;;
16075;SDS011;8142;48.242;11.644;2022-11-11T07:03:31;4.60;;;4.03;;
16075;SDS011;8142;48.242;11.644;2022-11-11T07:06:01;5.30;;;3.80;;
16075;SDS011;8142;48.242;11.644;2022-11-11T07:08:28;6.73;;;3.50;;
16075;SDS011;8142;48.242;11.644;2022-11-11T07:10:54;8.27;;;3.80;;
16075;SDS011;8142;48.242;11.644;2022-11-11T07:13:20;8.30;;;3.97;;
16075;SDS011;8142;48.242;11.644;2022-11-11T07:15:46;5.70;;;4.03;;
16075;SDS011;8142;48.242;11.644;2022-11-11T07:18:12;12.57;;;4.33;;
16075;SDS011;8142;48.242;11.644;2022-11-11T07:20:38;7.33;;;4.20;;
16075;SDS011;8142;48.242;11.644;2022-11-11T07:23:04;6.03;;;4.17;;
16075;SDS011;8142;48.242;11.644;2022-11-11T07:25:30;13.57;;;7.07;;
16075;SDS011;8142;48.242;11.644;2022-11-11T07:27:57;13.67;;;6.97;;
16075;SDS011;8142;48.242;11.644;2022-11-11T07:30:23;8.53;;;5.60;;
16075;SDS011;8142;48.242;11.644;2022-11-11T07:32:49;7.20;;;3.93;;
16075;SDS011;8142;48.242;11.644;2022-11-11T07:35:17;3.50;;;3.20;;
16075;SDS011;8142;48.242;11.644;2022-11-11T07:37:44;3.10;;;2.80;;
16075;SDS011;8142;48.242;11.644;2022-11-11T07:40:11;2.80;;;2.60;;
16075;SDS011;8142;48.242;11.644;2022-11-11T07:42:39;2.93;;;2.30;;
16075;SDS011;8142;48.242;11.644;2022-11-11T07:45:06;3.20;;;2.90;;
16075;SDS011;8142;48.242;11.644;2022-11-11T07:47:33;2.60;;;2.40;;
16075;SDS011;8142;48.242;11.644;2022-11-11T07:50:00;3.30;;;2.93;;
16075;SDS011;8142;48.242;11.644;2022-11-11T07:52:27;3.10;;;2.80;;
16075;SDS011;8142;48.242;11.644;2022-11-11T07:54:53;3.30;;;2.80;;
16075;SDS011;8142;48.242;11.644;2022-11-11T07:57:19;5.10;;;3.40;;
16075;SDS011;8142;48.242;11.644;2022-11-11T07:59:45;3.90;;;3.50;;
16075;SDS011;8142;48.242;11.644;2022-11-11T08:02:11;4.37;;;3.97;;
16075;SDS011;8142;48.242;11.644;2022-11-11T08:04:37;4.67;;;4.20;;
16075;SDS011;8142;48.242;11.644;2022-11-11T08:07:03;5.37;;;4.20;;
16075;SDS011;8142;48.242;11.644;2022-11-11T08:09:29;5.87;;;4.23;;
16075;SDS011;8142;48.242;11.644;2022-11-11T08:11:55;5.30;;;4.20;;
16075;SDS011;8142;48.242;11.644;2022-11-11T08:14:40;5.13;;;3.87;;
16075;SDS011;8142;48.242;11.644;2022-11-11T08:17:05;5.97;;;4.00;;
16075;SDS011;8142;48.242;11.644;2022-11-11T08:19:31;4.13;;;3.73;;
16075;SDS011;8142;48.242;11.644;2022-11-11T08:21:57;5.17;;;4.30;;
16075;SDS011;8142;48.242;11.644;2022-11-11T08:24:23;6.60;;;4.90;;
16075;SDS011;8142;48.242;11.644;2022-11-11T08:26:49;6.93;;;4.67;;
16075;SDS011;8142;48.242;11.644;2022-11-11T08:29:15;4.77;;;4.20;;
16075;SDS011;8142;48.242;11.644;2022-11-11T08:31:40;5.13;;;4.23;;
16075;SDS011;8142;48.242;11.644;2022-11-11T08:34:06;7.33;;;4.77;;
16075;SDS011;8142;48.242;11.644;2022-11-11T08:36:32;5.43;;;4.47;;
16075;SDS011;8142;48.242;11.644;2022-11-11T08:38:58;6.10;;;4.70;;
16075;SDS011;8142;48.242;11.644;2022-11-11T08:41:24;5.37;;;4.50;;
16075;SDS011;8142;48.242;11.644;2022-11-11T08:43:51;6.10;;;4.50;;
16075;SDS011;8142;48.242;11.644;2022-11-11T08:46:18;8.33;;;4.80;;
16075;SDS011;8142;48.242;11.644;2022-11-11T08:48:43;5.80;;;4.63;;
16075;SDS011;8142;48.242;11.644;2022-11-11T08:51:09;5.93;;;4.60;;
16075;SDS011;8142;48.242;11.644;2022-11-11T08:53:35;5.50;;;4.80;;
16075;SDS011;8142;48.242;11.644;2022-11-11T08:56:02;5.67;;;4.70;;
16075;SDS011;8142;48.242;11.644;2022-11-11T08:58:28;5.93;;;4.53;;
16075;SDS011;8142;48.242;11.644;2022-11-11T09:00:54;7.87;;;5.10;;
16075;SDS011;8142;48.242;11.644;2022-11-11T09:03:21;5.93;;;4.83;;
16075;SDS011;8142;48.242;11.644;2022-11-11T09:05:46;6.87;;;5.10;;
16075;SDS011;8142;48.242;11.644;2022-11-11T09:08:12;5.90;;;4.50;;
16075;SDS011;8142;48.242;11.644;2022-11-11T09:10:38;6.13;;;4.47;;
16075;SDS011;8142;48.242;11.644;2022-11-11T09:13:04;7.37;;;4.77;;
16075;SDS011;8142;48.242;11.644;2022-11-11T09:15:30;7.97;;;5.00;;
16075;SDS011;8142;48.242;11.644;2022-11-11T09:17:57;7.20;;;4.93;;
16075;SDS011;8142;48.242;11.644;2022-11-11T09:20:23;5.63;;;4.73;;
16075;SDS011;8142;48.242;11.644;2022-11-11T09:22:49;9.33;;;4.53;;
16075;SDS011;8142;48.242;11.644;2022-11-11T09:25:17;6.97;;;4.60;;
16075;SDS011;8142;48.242;11.644;2022-11-11T09:27:43;6.43;;;4.30;;
16075;SDS011;8142;48.242;11.644;2022-11-11T09:30:09;7.07;;;4.60;;
16075;SDS011;8142;48.242;11.644;2022-11-11T09:32:36;5.93;;;4.50;;
16075;SDS011;8142;48.242;11.644;2022-11-11T09:35:02;6.80;;;4.70;;
16075;SDS011;8142;48.242;11.644;2022-11-11T09:37:29;5.87;;;4.43;;
16075;SDS011;8142;48.242;11.644;2022-11-11T09:39:54;6.83;;;4.00;;
16075;SDS011;8142;48.242;11.644;2022-11-11T09:42:29;6.33;;;4.00;;
16075;SDS011;8142;48.242;11.644;2022-11-11T09:45:23;6.27;;;4.13;;
16075;SDS011;8142;48.242;11.644;2022-11-11T09:48:21;4.67;;;4.00;;
16075;SDS011;8142;48.242;11.644;2022-11-11T09:50:57;6.70;;;4.20;;
16075;SDS011;8142;48.242;11.644;2022-11-11T09:53:36;6.03;;;4.07;;
16075;SDS011;8142;48.242;11.644;2022-11-11T09:56:07;6.93;;;4.43;;
16075;SDS011;8142;48.242;11.644;2022-11-11T09:58:38;5.50;;;4.23;;
16075;SDS011;8142;48.242;11.644;2022-11-11T10:01:21;5.90;;;4.00;;
16075;SDS011;8142;48.242;11.644;2022-11-11T10:04:39;7.67;;;4.50;;
16075;SDS011;8142;48.242;11.644;2022-11-11T10:07:17;8.97;;;4.03;;
16075;SDS011;8142;48.242;11.644;2022-11-11T10:09:51;4.30;;;3.90;;
16075;SDS011;8142;48.242;11.644;2022-11-11T10:12:21;7.37;;;4.17;;
16075;SDS011;8142;48.242;11.644;2022-11-11T10:14:53;6.27;;;4.50;;
16075;SDS011;8142;48.242;11.644;2022-11-11T10:22:53;6.03;;;4.20;;
16075;SDS011;8142;48.242;11.644;2022-11-11T10:25:37;4.73;;;4.10;;
16075;SDS011;8142;48.242;11.644;2022-11-11T10:28:18;5.80;;;4.03;;
16075;SDS011;8142;48.242;11.644;2022-11-11T10:30:46;6.57;;;4.13;;
16075;SDS011;8142;48.242;11.644;2022-11-11T10:35:53;5.33;;;4.33;;
16075;SDS011;8142;48.242;11.644;2022-11-11T10:38:32;6.17;;;3.83;;
16075;SDS011;8142;48.242;11.644;2022-11-11T10:41:14;7.90;;;4.17;;
16075;SDS011;8142;48.242;11.644;2022-11-11T10:43:53;7.20;;;4.40;;
16075;SDS011;8142;48.242;11.644;2022-11-11T10:46:38;6.00;;;4.03;;
16075;SDS011;8142;48.242;11.644;2022-11-11T10:49:17;6.63;;;4.27;;
16075;SDS011;8142;48.242;11.644;2022-11-11T10:52:06;4.83;;;4.07;;
16075;SDS011;8142;48.242;11.644;2022-11-11T10:59:39;5.50;;;4.13;;
16075;SDS011;8142;48.242;11.644;2022-11-11T11:02:23;5.07;;;4.07;;
16075;SDS011;8142;48.242;11.644;2022-11-11T11:07:36;5.53;;;4.30;;
16075;SDS011;8142;48.242;11.644;2022-11-11T11:12:48;5.63;;;3.90;;
16075;SDS011;8142;48.242;11.644;2022-11-11T11:15:20;5.07;;;4.00;;
16075;SDS011;8142;48.242;11.644;2022-11-11T11:17:50;4.50;;;4.10;;
16075;SDS011;8142;48.242;11.644;2022-11-11T11:20:23;5.50;;;4.40;;
16075;SDS011;8142;48.242;11.644;2022-11-11T11:22:52;4.80;;;3.80;;
16075;SDS011;8142;48.242;11.644;2022-11-11T11:25:27;5.20;;;4.10;;
16075;SDS011;8142;48.242;11.644;2022-11-11T11:28:06;4.10;;;3.70;;
16075;SDS011;8142;48.242;11.644;2022-11-11T11:30:37;4.50;;;3.70;;
16075;SDS011;8142;48.242;11.644;2022-11-11T11:33:04;5.00;;;3.90;;
16075;SDS011;8142;48.242;11.644;2022-11-11T11:35:40;4.13;;;3.50;;
16075;SDS011;8142;48.242;11.644;2022-11-11T11:38:11;5.00;;;3.97;;
16075;SDS011;8142;48.242;11.644;2022-11-11T11:43:30;5.27;;;3.60;;
16075;SDS011;8142;48.242;11.644;2022-11-11T11:45:59;4.37;;;3.57;;
16075;SDS011;8142;48.242;11.644;2022-11-11T11:53:50;4.10;;;3.30;;
16075;SDS011;8142;48.242;11.644;2022-11-11T11:58:56;4.33;;;3.13;;
16075;SDS011;8142;48.242;11.644;2022-11-11T12:06:21;4.20;;;3.50;;
16075;SDS011;8142;48.242;11.644;2022-11-11T12:08:59;3.97;;;3.57;;
16075;SDS011;8142;48.242;11.644;2022-11-11T12:22:39;3.70;;;3.20;;
16075;SDS011;8142;48.242;11.644;2022-11-11T12:28:19;4.33;;;3.30;;
16075;SDS011;8142;48.242;11.644;2022-11-11T12:30:52;3.93;;;3.20;;
16075;SDS011;8142;48.242;11.644;2022-11-11T12:36:12;4.67;;;3.50;;
16075;SDS011;8142;48.242;11.644;2022-11-11T12:41:58;3.53;;;3.20;;
16075;SDS011;8142;48.242;11.644;2022-11-11T12:47:34;5.17;;;3.50;;
16075;SDS011;8142;48.242;11.644;2022-11-11T12:50:25;4.00;;;3.60;;
16075;SDS011;8142;48.242;11.644;2022-11-11T13:01:50;5.17;;;4.00;;
16075;SDS011;8142;48.242;11.644;2022-11-11T13:16:25;7.10;;;5.73;;
16075;SDS011;8142;48.242;11.644;2022-11-11T13:18:59;6.90;;;6.17;;
16075;SDS011;8142;48.242;11.644;2022-11-11T13:21:39;8.63;;;6.17;;
16075;SDS011;8142;48.242;11.644;2022-11-11T13:24:25;8.10;;;5.83;;
16075;SDS011;8142;48.242;11.644;2022-11-11T13:27:14;7.90;;;6.50;;
16075;SDS011;8142;48.242;11.644;2022-11-11T13:32:43;7.87;;;6.60;;
16075;SDS011;8142;48.242;11.644;2022-11-11T13:38:01;7.83;;;6.77;;
16075;SDS011;8142;48.242;11.644;2022-11-11T13:40:35;8.23;;;6.90;;
16075;SDS011;8142;48.242;11.644;2022-11-11T13:43:05;8.47;;;6.60;;
16075;SDS011;8142;48.242;11.644;2022-11-11T13:45:51;8.20;;;6.67;;
16075;SDS011;8142;48.242;11.644;2022-11-11T13:48:23;6.93;;;6.13;;
16075;SDS011;8142;48.242;11.644;2022-11-11T13:51:09;9.27;;;6.40;;
16075;SDS011;8142;48.242;11.644;2022-11-11T13:53:53;6.47;;;5.87;;
16075;SDS011;8142;48.242;11.644;2022-11-11T13:56:27;8.10;;;5.90;;
16075;SDS011;8142;48.242;11.644;2022-11-11T13:59:00;7.83;;;6.10;;
16075;SDS011;8142;48.242;11.644;2022-11-11T14:01:32;10.03;;;6.37;;
16075;SDS011;8142;48.242;11.644;2022-11-11T14:04:01;7.27;;;6.20;;
16075;SDS011;8142;48.242;11.644;2022-11-11T14:06:47;7.93;;;6.07;;
16075;SDS011;8142;48.242;11.644;2022-11-11T14:12:20;7.97;;;5.37;;
16075;SDS011;8142;48.242;11.644;2022-11-11T14:14:54;6.47;;;5.10;;
16075;SDS011;8142;48.242;11.644;2022-11-11T14:17:21;6.30;;;5.47;;
16075;SDS011;8142;48.242;11.644;2022-11-11T14:19:47;5.77;;;5.17;;
16075;SDS011;8142;48.242;11.644;2022-11-11T14:22:26;6.43;;;4.63;;
16075;SDS011;8142;48.242;11.644;2022-11-11T14:24:54;5.30;;;4.80;;
16075;SDS011;8142;48.242;11.644;2022-11-11T14:27:38;5.30;;;4.80;;
16075;SDS011;8142;48.242;11.644;2022-11-11T14:30:11;6.07;;;4.97;;
16075;SDS011;8142;48.242;11.644;2022-11-11T14:35:25;6.57;;;5.30;;
16075;SDS011;8142;48.242;11.644;2022-11-11T14:40:52;5.90;;;5.23;;
16075;SDS011;8142;48.242;11.644;2022-11-11T14:46:09;5.53;;;4.97;;
16075;SDS011;8142;48.242;11.644;2022-11-11T14:54:03;7.77;;;4.80;;
16075;SDS011;8142;48.242;11.644;2022-11-11T14:56:31;7.77;;;5.40;;
16075;SDS011;8142;48.242;11.644;2022-11-11T14:58:58;8.30;;;6.30;;
16075;SDS011;8142;48.242;11.644;2022-11-11T15:01:31;9.83;;;6.77;;
16075;SDS011;8142;48.242;11.644;2022-11-11T15:03:59;12.43;;;7.73;;
16075;SDS011;8142;48.242;11.644;2022-11-11T15:06:31;9.13;;;6.57;;
16075;SDS011;8142;48.242;11.644;2022-11-11T15:11:49;13.57;;;8.50;;
16075;SDS011;8142;48.242;11.644;2022-11-11T15:25:48;11.37;;;7.53;;
16075;SDS011;8142;48.242;11.644;2022-11-11T15:31:15;8.50;;;7.50;;
16075;SDS011;8142;48.242;11.644;2022-11-11T15:34:07;9.43;;;7.80;;
16075;SDS011;8142;48.242;11.644;2022-11-11T15:36:42;11.00;;;8.80;;
16075;SDS011;8142;48.242;11.644;2022-11-11T15:39:23;12.37;;;8.43;;
16075;SDS011;8142;48.242;11.644;2022-11-11T15:41:51;10.90;;;9.17;;
16075;SDS011;8142;48.242;11.644;2022-11-11T15:44:19;11.20;;;8.60;;
16075;SDS011;8142;48.242;11.644;2022-11-11T15:46:51;12.40;;;9.10;;
16075;SDS011;8142;48.242;11.644;2022-11-11T15:54:47;16.60;;;11.53;;
16075;SDS011;8142;48.242;11.644;2022-11-11T15:57:35;22.23;;;13.70;;
16075;SDS011;8142;48.242;11.644;2022-11-11T16:00:01;25.80;;;14.67;;
16075;SDS011;8142;48.242;11.644;2022-11-11T16:02:43;25.77;;;14.90;;
16075;SDS011;8142;48.242;11.644;2022-11-11T16:05:14;22.33;;;12.93;;
16075;SDS011;8142;48.242;11.644;2022-11-11T16:07:45;22.37;;;13.13;;
16075;SDS011;8142;48.242;11.644;2022-11-11T16:12:53;15.97;;;10.93;;
16075;SDS011;8142;48.242;11.644;2022-11-11T16:15:42;16.80;;;11.33;;
16075;SDS011;8142;48.242;11.644;2022-11-11T16:18:13;16.83;;;11.33;;
16075;SDS011;8142;48.242;11.644;2022-11-11T16:21:07;16.40;;;10.67;;
16075;SDS011;8142;48.242;11.644;2022-11-11T16:23:38;15.63;;;10.63;;
16075;SDS011;8142;48.242;11.644;2022-11-11T16:26:06;15.80;;;11.10;;
16075;SDS011;8142;48.242;11.644;2022-11-11T16:28:40;15.00;;;10.83;;
16075;SDS011;8142;48.242;11.644;2022-11-11T16:37:02;9.10;;;7.20;;
16075;SDS011;8142;48.242;11.644;2022-11-11T16:39:32;8.07;;;6.50;;
16075;SDS011;8142;48.242;11.644;2022-11-11T16:42:06;7.90;;;5.80;;
16075;SDS011;8142;48.242;11.644;2022-11-11T16:58:02;8.97;;;6.77;;
16075;SDS011;8142;48.242;11.644;2022-11-11T17:00:44;9.13;;;6.93;;
16075;SDS011;8142;48.242;11.644;2022-11-11T17:03:20;9.87;;;6.10;;
16075;SDS011;8142;48.242;11.644;2022-11-11T17:05:50;8.67;;;6.90;;
16075;SDS011;8142;48.242;11.644;2022-11-11T17:08:36;8.40;;;6.70;;
16075;SDS011;8142;48.242;11.644;2022-11-11T17:14:05;9.70;;;7.23;;
16075;SDS011;8142;48.242;11.644;2022-11-11T17:16:31;9.70;;;7.10;;
16075;SDS011;8142;48.242;11.644;2022-11-11T17:19:01;9.47;;;6.93;;
16075;SDS011;8142;48.242;11.644;2022-11-11T17:21:28;11.50;;;7.70;;
16075;SDS011;8142;48.242;11.644;2022-11-11T17:23:54;18.43;;;11.53;;
16075;SDS011;8142;48.242;11.644;2022-11-11T17:26:19;16.93;;;11.40;;
16075;SDS011;8142;48.242;11.644;2022-11-11T17:28:45;15.40;;;10.47;;
16075;SDS011;8142;48.242;11.644;2022-11-11T17:31:11;16.03;;;10.10;;
16075;SDS011;8142;48.242;11.644;2022-11-11T17:33:38;16.60;;;11.03;;
16075;SDS011;8142;48.242;11.644;2022-11-11T17:36:04;16.20;;;10.27;;
16075;SDS011;8142;48.242;11.644;2022-11-11T17:38:36;20.27;;;10.37;;
16075;SDS011;8142;48.242;11.644;2022-11-11T17:41:02;16.33;;;10.00;;
16075;SDS011;8142;48.242;11.644;2022-11-11T17:43:29;14.80;;;9.87;;
16075;SDS011;8142;48.242;11.644;2022-11-11T17:45:55;17.03;;;10.57;;
16075;SDS011;8142;48.242;11.644;2022-11-11T17:48:24;17.47;;;10.47;;
16075;SDS011;8142;48.242;11.644;2022-11-11T17:50:50;14.50;;;10.50;;
16075;SDS011;8142;48.242;11.644;2022-11-11T17:53:15;15.03;;;9.70;;
16075;SDS011;8142;48.242;11.644;2022-11-11T17:55:41;17.43;;;10.73;;